createdAt,value
2018-05-23T00:09:56.000Z,24.34
2018-05-23T00:19:56.000Z,24.31
2018-05-23T00:29:56.000Z,24.29
2018-05-23T00:39:56.000Z,24.26
2018-05-23T00:49:56.000Z,24.24
2018-05-23T00:59:56.000Z,24.2
2018-05-23T01:09:56.000Z,24.18
2018-05-23T01:19:56.000Z,24.16
2018-05-23T01:29:57.000Z,24.12
2018-05-23T01:39:56.000Z,24.09
2018-05-23T01:49:56.000Z,24.07
2018-05-23T01:59:56.000Z,24.04
2018-05-23T02:09:57.000Z,24.02
2018-05-23T02:19:57.000Z,24
2018-05-23T02:29:56.000Z,23.98
2018-05-23T02:39:56.000Z,23.95
2018-05-23T02:49:56.000Z,23.93
2018-05-23T02:59:56.000Z,23.9
2018-05-23T03:09:56.000Z,23.88
2018-05-23T03:19:56.000Z,23.86
2018-05-23T03:29:56.000Z,23.84
2018-05-23T03:39:56.000Z,23.82
2018-05-23T03:49:56.000Z,23.8
2018-05-23T03:59:56.000Z,23.8
2018-05-23T04:09:56.000Z,23.77
2018-05-23T04:19:56.000Z,23.76
2018-05-23T04:29:56.000Z,23.75
2018-05-23T04:39:56.000Z,23.74
2018-05-23T04:49:56.000Z,23.73
2018-05-23T04:59:56.000Z,23.73
2018-05-23T05:09:56.000Z,23.72
2018-05-23T05:19:56.000Z,23.72
2018-05-23T05:29:56.000Z,23.72
2018-05-23T05:39:56.000Z,23.75
2018-05-23T05:49:56.000Z,23.76
2018-05-23T05:59:56.000Z,23.85
2018-05-23T06:09:56.000Z,23.83
2018-05-23T06:19:56.000Z,23.86
2018-05-23T06:29:56.000Z,23.91
2018-05-23T06:39:56.000Z,23.95
2018-05-23T06:49:56.000Z,23.98
2018-05-23T06:59:56.000Z,24.03
2018-05-23T07:09:56.000Z,24.05
2018-05-23T07:19:56.000Z,24.08
2018-05-23T07:29:56.000Z,24.12
2018-05-23T07:39:56.000Z,24.17
2018-05-23T07:49:56.000Z,24.27
2018-05-23T07:59:56.000Z,24.4
2018-05-23T08:09:56.000Z,24.39
2018-05-23T08:29:57.000Z,24.5
2018-05-23T08:39:57.000Z,24.55
2018-05-23T08:49:57.000Z,24.61
2018-05-23T08:59:57.000Z,24.64
2018-05-23T09:09:57.000Z,24.69
2018-05-23T09:19:58.000Z,24.77
2018-05-23T09:29:57.000Z,24.84
2018-05-23T09:39:59.000Z,24.99
2018-05-23T09:49:57.000Z,25.04
2018-05-23T09:59:57.000Z,25.18
2018-05-23T10:09:57.000Z,25.29
2018-05-23T10:49:57.000Z,25.38
2018-05-23T10:59:57.000Z,25.32
2018-05-23T11:10:00.000Z,25.3
2018-05-23T11:19:57.000Z,25.31
2018-05-23T11:29:59.000Z,25.32
2018-05-23T11:39:57.000Z,25.35
2018-05-23T11:49:57.000Z,25.32
2018-05-23T11:59:57.000Z,25.35
2018-05-23T12:09:57.000Z,25.38
2018-05-23T12:19:57.000Z,25.39
2018-05-23T12:29:57.000Z,25.41
2018-05-23T12:39:57.000Z,25.38
2018-05-23T12:49:58.000Z,25.41
2018-05-23T12:59:57.000Z,25.47
2018-05-23T13:09:57.000Z,25.49
2018-05-23T13:19:57.000Z,25.55
2018-05-23T13:29:57.000Z,25.59
2018-05-23T13:39:57.000Z,25.64
2018-05-23T13:49:57.000Z,25.69
2018-05-23T13:59:57.000Z,25.72
2018-05-23T14:09:57.000Z,25.73
2018-05-23T14:19:57.000Z,25.71
2018-05-23T14:29:57.000Z,25.74
2018-05-23T14:39:57.000Z,25.8
2018-05-23T14:49:57.000Z,25.75
2018-05-23T14:59:57.000Z,25.75
2018-05-23T15:09:57.000Z,25.75
2018-05-23T15:19:57.000Z,25.76
2018-05-23T15:29:58.000Z,25.75
2018-05-23T15:39:57.000Z,25.74
2018-05-23T15:49:57.000Z,25.77
2018-05-23T15:59:57.000Z,25.75
2018-05-23T16:09:57.000Z,25.75
2018-05-23T16:19:58.000Z,25.74
2018-05-23T16:29:57.000Z,25.76
2018-05-23T16:39:58.000Z,25.77
2018-05-23T16:49:58.000Z,25.84
2018-05-23T16:59:58.000Z,25.75
2018-05-23T17:09:58.000Z,25.75
2018-05-23T17:19:58.000Z,25.77
2018-05-23T17:29:58.000Z,25.76
2018-05-23T17:39:58.000Z,25.75
2018-05-23T17:49:58.000Z,25.71
2018-05-23T17:59:58.000Z,25.68
2018-05-23T18:09:58.000Z,25.62
2018-05-23T18:19:58.000Z,25.57
2018-05-23T18:30:02.000Z,25.56
2018-05-23T18:39:58.000Z,25.54
2018-05-23T18:49:58.000Z,25.55
2018-05-23T18:59:58.000Z,25.55
2018-05-23T19:09:58.000Z,25.48
2018-05-23T19:19:58.000Z,25.47
2018-05-23T19:29:58.000Z,25.46
2018-05-23T19:39:58.000Z,25.44
2018-05-23T19:49:58.000Z,25.43
2018-05-23T19:59:58.000Z,25.4
2018-05-23T20:09:58.000Z,25.39
2018-05-23T20:19:58.000Z,25.38
2018-05-23T20:29:58.000Z,25.34
2018-05-23T20:39:58.000Z,25.3
2018-05-23T20:49:58.000Z,25.26
2018-05-23T20:59:58.000Z,25.21
2018-05-23T21:09:58.000Z,25.17
2018-05-23T21:19:58.000Z,25.14
2018-05-23T21:29:58.000Z,25.09
2018-05-23T21:39:58.000Z,25.07
2018-05-23T21:49:58.000Z,25.04
2018-05-23T21:59:58.000Z,24.99
2018-05-23T22:09:58.000Z,24.94
2018-05-23T22:19:58.000Z,24.9
2018-05-23T22:29:58.000Z,24.85
2018-05-23T22:39:58.000Z,24.81
2018-05-23T22:49:58.000Z,24.78
2018-05-23T22:59:58.000Z,24.75
2018-05-23T23:09:58.000Z,24.73
2018-05-23T23:19:58.000Z,24.7
2018-05-23T23:29:58.000Z,24.67
2018-05-23T23:39:58.000Z,24.62
2018-05-23T23:49:59.000Z,24.58
2018-05-23T23:59:58.000Z,24.54
